Airport ICAO


07:22 UTC

8°C


An affordable passengers' Moving Map for your aircraft. Made for the iPad and the iPhone
More information here

EGMD Lydd


Lydd UNITED KINGDOM   VFR


METAR EGMD 170650Z AUTO 17010KT 9999 NCD 08/06 Q1017 0h32min

TAF EGMD 170458Z 1706/1715 19005KT CAVOK BECMG 1706/1709 19015KT 2h24min





NOTAMS

OPEN